createdAt,value
2022-10-01T00:01:25.827Z,3.37
2022-10-01T00:03:53.567Z,2.80
2022-10-01T00:06:21.361Z,3.60
2022-10-01T00:08:49.915Z,3.27
2022-10-01T00:11:28.532Z,3.17
2022-10-01T00:13:58.952Z,3.20
2022-10-01T00:16:27.255Z,3.30
2022-10-01T00:18:54.317Z,2.77
2022-10-01T00:21:22.642Z,2.80
2022-10-01T00:24:01.706Z,3.03
2022-10-01T00:26:30.209Z,3.03
2022-10-01T00:29:00.976Z,2.87
2022-10-01T00:31:28.047Z,3.10
2022-10-01T00:33:55.530Z,3.27
2022-10-01T00:36:22.478Z,3.70
2022-10-01T00:38:49.623Z,3.53
2022-10-01T00:41:17.682Z,3.30
2022-10-01T00:43:46.956Z,3.20
2022-10-01T00:46:18.668Z,3.40
2022-10-01T00:49:20.986Z,3.10
2022-10-01T00:51:51.286Z,3.70
2022-10-01T00:54:27.541Z,3.57
2022-10-01T00:56:58.333Z,3.30
2022-10-01T00:59:25.804Z,3.60
2022-10-01T01:01:52.570Z,3.40
2022-10-01T01:04:21.094Z,3.63
2022-10-01T01:06:56.048Z,3.30
2022-10-01T01:09:34.633Z,3.07
2022-10-01T01:12:19.600Z,3.57
2022-10-01T01:14:49.818Z,3.37
2022-10-01T01:17:22.896Z,3.70
2022-10-01T01:19:59.315Z,4.17
2022-10-01T01:22:28.098Z,3.37
2022-10-01T01:25:05.747Z,3.57
2022-10-01T01:27:42.640Z,3.67
2022-10-01T01:30:11.698Z,3.27
2022-10-01T01:32:41.789Z,3.47
2022-10-01T01:35:13.788Z,3.23
2022-10-01T01:37:49.473Z,3.40
2022-10-01T01:40:20.416Z,2.97
2022-10-01T01:42:49.815Z,3.40
2022-10-01T01:45:22.556Z,2.77
2022-10-01T01:47:50.455Z,2.70
2022-10-01T01:50:17.294Z,2.50
2022-10-01T01:52:44.308Z,2.77
2022-10-01T01:55:11.314Z,2.60
2022-10-01T01:57:41.088Z,2.80
2022-10-01T02:00:08.163Z,2.93
2022-10-01T02:02:36.385Z,2.80
2022-10-01T02:05:07.682Z,2.80
2022-10-01T02:07:46.742Z,2.63
2022-10-01T02:10:24.517Z,2.97
2022-10-01T02:13:07.568Z,2.70
2022-10-01T02:15:46.144Z,2.73
2022-10-01T02:18:27.112Z,2.97
2022-10-01T02:20:58.163Z,2.90
2022-10-01T02:23:30.201Z,2.97
2022-10-01T02:25:59.711Z,2.50
2022-10-01T02:28:26.815Z,3.00
2022-10-01T02:30:55.398Z,2.80
2022-10-01T02:33:24.654Z,3.03
2022-10-01T02:35:52.967Z,2.20
2022-10-01T02:38:22.274Z,2.63
2022-10-01T02:40:52.388Z,2.50
2022-10-01T02:43:21.158Z,2.90
2022-10-01T02:45:49.478Z,2.70
2022-10-01T02:48:17.680Z,2.53
2022-10-01T02:50:50.773Z,2.90
2022-10-01T02:53:27.515Z,2.67
2022-10-01T02:55:57.743Z,2.77
2022-10-01T02:58:24.431Z,2.53
2022-10-01T03:00:54.241Z,2.70
2022-10-01T03:03:21.238Z,2.30
2022-10-01T03:05:49.163Z,2.60
2022-10-01T03:08:24.434Z,2.20
2022-10-01T03:10:51.029Z,2.37
2022-10-01T03:13:19.701Z,2.53
2022-10-01T03:15:47.425Z,2.13
2022-10-01T03:18:14.014Z,3.27
2022-10-01T03:20:40.832Z,2.10
2022-10-01T03:23:07.551Z,2.20
2022-10-01T03:25:34.606Z,2.07
2022-10-01T03:28:01.298Z,1.93
2022-10-01T03:30:28.431Z,1.90
2022-10-01T03:32:55.180Z,2.00
2022-10-01T03:35:22.957Z,1.90
2022-10-01T03:37:50.085Z,2.10
2022-10-01T03:40:16.859Z,1.87
2022-10-01T03:42:43.408Z,1.97
2022-10-01T03:45:10.328Z,2.00
2022-10-01T03:47:39.940Z,1.87
2022-10-01T03:50:07.201Z,2.20
2022-10-01T03:52:33.989Z,1.80
2022-10-01T03:55:03.843Z,1.80
2022-10-01T03:57:30.610Z,1.57
2022-10-01T03:59:58.466Z,1.50
2022-10-01T04:02:25.665Z,1.10
2022-10-01T04:04:52.778Z,1.60
2022-10-01T04:07:19.561Z,1.40
2022-10-01T04:09:46.531Z,1.03
2022-10-01T04:12:13.306Z,1.10
2022-10-01T04:14:40.208Z,0.80
2022-10-01T04:17:09.796Z,0.80
2022-10-01T04:19:36.510Z,0.60
2022-10-01T04:22:03.111Z,0.60
2022-10-01T04:24:29.585Z,0.50
2022-10-01T04:26:56.100Z,0.47
2022-10-01T04:32:16.316Z,0.30
2022-10-01T04:34:53.277Z,0.50
2022-10-01T04:37:21.107Z,0.30
2022-10-01T04:39:48.633Z,0.40
2022-10-01T04:42:15.958Z,0.30
2022-10-01T04:44:42.676Z,0.30
2022-10-01T04:47:09.890Z,0.30
2022-10-01T04:49:37.194Z,0.40
2022-10-01T04:52:04.607Z,0.23
2022-10-01T04:54:31.481Z,0.20
2022-10-01T04:56:58.507Z,0.30
2022-10-01T04:59:25.773Z,0.30
2022-10-01T05:01:52.723Z,0.27
2022-10-01T05:04:20.488Z,0.30
2022-10-01T05:06:47.655Z,0.30
2022-10-01T05:09:14.202Z,0.30
2022-10-01T05:11:42.999Z,0.40
2022-10-01T05:14:10.999Z,0.20
2022-10-01T05:16:39.969Z,0.30
2022-10-01T05:19:07.247Z,0.30
2022-10-01T05:21:35.346Z,0.30
2022-10-01T05:24:02.304Z,0.40
2022-10-01T05:26:32.105Z,0.30
2022-10-01T05:28:59.684Z,0.30
2022-10-01T05:31:26.716Z,0.30
2022-10-01T05:33:54.046Z,0.40
2022-10-01T05:36:20.685Z,0.83
2022-10-01T05:38:52.421Z,0.40
2022-10-01T05:41:19.759Z,0.20
2022-10-01T05:43:48.099Z,0.30
2022-10-01T05:46:14.591Z,0.30
2022-10-01T05:48:42.078Z,0.50
2022-10-01T05:51:08.792Z,0.20
2022-10-01T05:53:37.631Z,0.30
2022-10-01T05:56:06.014Z,0.40
2022-10-01T05:58:33.341Z,0.30
2022-10-01T06:01:00.090Z,0.40
2022-10-01T06:03:29.779Z,0.30
2022-10-01T06:05:57.781Z,0.37
2022-10-01T06:08:24.300Z,0.23
2022-10-01T06:10:52.405Z,0.20
2022-10-01T06:13:19.089Z,0.50
2022-10-01T06:15:46.267Z,0.30
2022-10-01T06:18:13.994Z,0.40
2022-10-01T06:20:41.071Z,0.30
2022-10-01T06:23:12.061Z,0.50
2022-10-01T06:25:43.428Z,0.30
2022-10-01T06:28:12.497Z,0.37
2022-10-01T06:30:39.396Z,0.23
2022-10-01T06:33:07.377Z,0.30
2022-10-01T06:35:34.911Z,0.30
2022-10-01T06:38:02.456Z,0.33
2022-10-01T06:40:29.701Z,0.40
2022-10-01T06:43:00.588Z,0.27
2022-10-01T06:45:28.245Z,0.30
2022-10-01T06:47:55.854Z,0.30
2022-10-01T06:50:24.589Z,0.30
2022-10-01T06:53:01.885Z,0.20
2022-10-01T06:55:32.484Z,0.30
2022-10-01T06:58:10.172Z,0.30
2022-10-01T07:00:39.190Z,0.30
2022-10-01T07:03:10.797Z,0.30
2022-10-01T07:05:38.905Z,0.77
2022-10-01T07:08:05.760Z,0.30
2022-10-01T07:10:33.261Z,0.30
2022-10-01T07:13:07.594Z,0.30
2022-10-01T07:15:34.471Z,0.30
2022-10-01T07:18:01.344Z,0.43
2022-10-01T07:20:28.526Z,0.47
2022-10-01T07:22:59.154Z,0.50
2022-10-01T07:25:26.542Z,0.50
2022-10-01T07:27:57.070Z,0.40
2022-10-01T07:30:24.333Z,0.50
2022-10-01T07:32:51.087Z,0.40
2022-10-01T07:35:20.384Z,0.57
2022-10-01T07:37:48.121Z,0.33
2022-10-01T07:40:16.609Z,0.50
2022-10-01T07:42:45.423Z,0.30
2022-10-01T07:45:17.424Z,0.40
2022-10-01T07:47:51.638Z,0.20
2022-10-01T07:50:18.393Z,0.30
2022-10-01T07:52:45.087Z,0.30
2022-10-01T07:55:14.392Z,0.20
2022-10-01T07:57:41.969Z,0.37
2022-10-01T08:00:08.951Z,0.20
2022-10-01T08:02:39.441Z,0.30
2022-10-01T08:05:20.384Z,0.50
2022-10-01T08:07:48.575Z,0.30
2022-10-01T08:10:16.066Z,0.20
2022-10-01T08:12:45.768Z,0.40
2022-10-01T08:15:14.469Z,0.40
2022-10-01T08:17:41.502Z,0.33
2022-10-01T08:20:09.485Z,0.40
2022-10-01T08:22:41.678Z,0.50
2022-10-01T08:25:09.057Z,0.30
2022-10-01T08:27:35.846Z,0.50
2022-10-01T08:30:04.368Z,0.53
2022-10-01T08:32:33.914Z,0.60
2022-10-01T08:35:01.558Z,0.40
2022-10-01T08:37:29.073Z,0.40
2022-10-01T08:39:56.381Z,0.60
2022-10-01T08:42:26.409Z,0.50
2022-10-01T08:44:53.814Z,0.50
2022-10-01T08:47:30.178Z,0.50
2022-10-01T08:50:03.398Z,0.60
2022-10-01T08:52:32.254Z,0.40
2022-10-01T08:55:07.314Z,0.50
2022-10-01T08:57:39.818Z,0.43
2022-10-01T09:00:11.080Z,0.60
2022-10-01T09:02:41.634Z,1.20
2022-10-01T09:05:19.448Z,0.60
2022-10-01T09:07:46.227Z,0.63
2022-10-01T09:10:25.877Z,0.70
2022-10-01T09:12:58.859Z,0.70
2022-10-01T09:18:20.366Z,0.83
2022-10-01T09:20:56.232Z,0.70
2022-10-01T09:23:30.714Z,0.90
2022-10-01T09:26:01.985Z,0.70
2022-10-01T09:28:30.138Z,0.90
2022-10-01T09:30:56.961Z,0.70
2022-10-01T09:33:28.772Z,0.80
2022-10-01T09:36:01.689Z,0.53
2022-10-01T09:38:37.287Z,0.60
2022-10-01T09:41:04.143Z,0.70
2022-10-01T09:43:35.400Z,0.77
2022-10-01T09:46:04.541Z,0.80
2022-10-01T09:48:46.188Z,0.77
2022-10-01T09:51:18.255Z,1.00
2022-10-01T09:54:11.408Z,0.80
2022-10-01T09:56:41.387Z,1.07
2022-10-01T09:59:13.158Z,1.27
2022-10-01T10:01:39.656Z,1.10
2022-10-01T10:04:06.429Z,1.63
2022-10-01T10:06:34.433Z,1.17
2022-10-01T10:09:02.081Z,1.20
2022-10-01T10:11:31.987Z,1.10
2022-10-01T10:14:00.328Z,1.80
2022-10-01T10:16:27.020Z,1.60
2022-10-01T10:18:56.092Z,1.33
2022-10-01T10:21:39.427Z,1.17
2022-10-01T10:24:08.377Z,1.40
2022-10-01T10:26:38.562Z,1.30
2022-10-01T10:29:07.707Z,1.37
2022-10-01T10:31:44.819Z,1.33
2022-10-01T10:34:16.568Z,1.33
2022-10-01T10:36:44.022Z,1.40
2022-10-01T10:39:21.941Z,1.40
2022-10-01T10:41:51.058Z,1.50
2022-10-01T10:44:21.714Z,1.13
2022-10-01T10:46:50.224Z,1.40
2022-10-01T10:49:31.224Z,1.60
2022-10-01T10:51:58.576Z,1.73
2022-10-01T10:54:31.672Z,1.50
2022-10-01T10:57:04.108Z,1.63
2022-10-01T10:59:34.089Z,1.73
2022-10-01T11:02:02.077Z,1.10
2022-10-01T11:04:46.440Z,1.30
2022-10-01T11:07:18.740Z,1.57
2022-10-01T11:09:51.646Z,1.37
2022-10-01T11:12:19.026Z,1.47
2022-10-01T11:14:48.723Z,1.60
2022-10-01T11:17:22.149Z,1.43
2022-10-01T11:20:07.702Z,1.80
2022-10-01T11:22:53.620Z,1.67
2022-10-01T11:25:20.472Z,1.40
2022-10-01T11:27:59.531Z,1.50
2022-10-01T11:30:29.890Z,1.37
2022-10-01T11:33:06.641Z,1.57
2022-10-01T11:35:40.381Z,1.53
2022-10-01T11:38:26.987Z,1.60
2022-10-01T11:41:06.868Z,2.00
2022-10-01T11:43:36.812Z,1.63
2022-10-01T11:46:07.421Z,2.00
2022-10-01T11:48:44.218Z,1.33
2022-10-01T11:51:13.972Z,1.60
2022-10-01T11:53:46.525Z,1.53
2022-10-01T11:56:36.674Z,1.57
2022-10-01T11:59:09.238Z,1.27
2022-10-01T12:01:42.664Z,1.80
2022-10-01T12:04:14.135Z,1.47
2022-10-01T12:06:56.101Z,1.60
2022-10-01T12:09:27.420Z,1.90
2022-10-01T12:12:12.077Z,1.60
2022-10-01T12:15:06.511Z,1.50
2022-10-01T12:17:51.570Z,1.50
2022-10-01T12:20:31.985Z,1.90
2022-10-01T12:22:59.586Z,1.77
2022-10-01T12:25:34.779Z,2.10
2022-10-01T12:28:06.894Z,2.33
2022-10-01T12:30:46.222Z,2.10
2022-10-01T12:33:31.774Z,1.70
2022-10-01T12:36:12.299Z,1.20
2022-10-01T12:38:39.447Z,1.33
2022-10-01T12:41:30.168Z,1.33
2022-10-01T12:44:15.509Z,1.63
2022-10-01T12:47:02.663Z,1.30
2022-10-01T12:49:35.533Z,1.53
2022-10-01T12:52:29.412Z,1.27
2022-10-01T12:55:15.342Z,1.40
2022-10-01T12:57:44.354Z,1.50
2022-10-01T13:00:14.770Z,1.30
2022-10-01T13:03:00.905Z,1.30
2022-10-01T13:05:27.716Z,1.13
2022-10-01T13:08:04.236Z,1.40
2022-10-01T13:10:49.524Z,1.63
2022-10-01T13:13:38.678Z,1.50
2022-10-01T13:16:19.269Z,1.63
2022-10-01T13:18:54.921Z,1.70
2022-10-01T13:21:33.679Z,2.13
2022-10-01T13:24:04.467Z,1.60
2022-10-01T13:26:46.339Z,1.90
2022-10-01T13:29:34.562Z,1.73
2022-10-01T13:32:21.224Z,1.40
2022-10-01T13:34:47.817Z,1.73
2022-10-01T13:37:14.451Z,1.80
2022-10-01T13:39:43.487Z,1.90
2022-10-01T13:42:17.520Z,2.00
2022-10-01T13:44:51.673Z,2.70
2022-10-01T13:47:20.061Z,2.57
2022-10-01T13:49:53.430Z,2.13
2022-10-01T13:52:26.447Z,2.03
2022-10-01T13:54:54.873Z,1.60
2022-10-01T13:57:36.100Z,2.00
2022-10-01T14:00:11.884Z,1.70
2022-10-01T14:02:43.592Z,1.30
2022-10-01T14:05:27.202Z,1.70
2022-10-01T14:08:08.393Z,3.33
2022-10-01T14:11:04.888Z,2.03
2022-10-01T14:13:53.855Z,2.63
2022-10-01T14:16:24.013Z,1.87
2022-10-01T14:18:50.823Z,4.07
2022-10-01T14:21:35.586Z,3.33
2022-10-01T14:24:28.777Z,2.40
2022-10-01T14:26:59.431Z,2.70
2022-10-01T14:29:46.383Z,33.27
2022-10-01T14:32:34.809Z,17.27
2022-10-01T14:35:20.932Z,3.43
2022-10-01T14:37:49.477Z,2.50
2022-10-01T14:40:20.593Z,2.50
2022-10-01T14:43:02.518Z,2.60
2022-10-01T14:45:29.767Z,2.40
2022-10-01T14:48:07.224Z,2.30
2022-10-01T14:50:34.487Z,2.20
2022-10-01T14:53:01.513Z,2.90
2022-10-01T14:55:29.364Z,2.30
2022-10-01T14:57:57.543Z,2.40
2022-10-01T15:00:28.283Z,2.10
2022-10-01T15:03:15.020Z,1.93
2022-10-01T15:05:45.150Z,2.50
2022-10-01T15:08:13.461Z,2.30
2022-10-01T15:11:07.323Z,2.20
2022-10-01T15:13:36.334Z,2.40
2022-10-01T15:16:02.967Z,2.00
2022-10-01T15:18:30.658Z,2.30
2022-10-01T15:21:02.694Z,1.80
2022-10-01T15:23:30.221Z,1.80
2022-10-01T15:25:58.249Z,2.03
2022-10-01T15:28:27.179Z,1.40
2022-10-01T15:30:54.368Z,1.80
2022-10-01T15:33:24.363Z,1.60
2022-10-01T15:35:51.133Z,1.83
2022-10-01T15:38:17.775Z,1.73
2022-10-01T15:40:44.350Z,1.97
2022-10-01T15:43:12.750Z,2.00
2022-10-01T15:45:41.494Z,1.60
2022-10-01T15:48:26.810Z,1.73
2022-10-01T15:50:58.161Z,1.77
2022-10-01T15:53:24.823Z,1.77
2022-10-01T15:55:52.689Z,1.67
2022-10-01T15:58:21.597Z,1.70
2022-10-01T16:00:49.161Z,1.97
2022-10-01T16:03:26.096Z,1.80
2022-10-01T16:05:55.036Z,2.10
2022-10-01T16:08:24.290Z,1.93
2022-10-01T16:11:09.652Z,1.97
2022-10-01T16:13:40.766Z,1.70
2022-10-01T16:16:17.278Z,2.43
2022-10-01T16:18:44.009Z,2.30
2022-10-01T16:21:11.377Z,2.13
2022-10-01T16:23:49.451Z,2.60
2022-10-01T16:26:25.205Z,2.17
2022-10-01T16:28:54.456Z,2.10
2022-10-01T16:31:21.157Z,2.20
2022-10-01T16:33:48.031Z,2.07
2022-10-01T16:36:19.837Z,2.10
2022-10-01T16:38:46.883Z,2.80
2022-10-01T16:41:16.085Z,3.50
2022-10-01T16:43:43.439Z,2.27
2022-10-01T16:46:10.005Z,2.20
2022-10-01T16:48:36.565Z,2.40
2022-10-01T16:51:03.702Z,1.90
2022-10-01T16:53:31.065Z,2.30
2022-10-01T16:55:58.274Z,2.07
2022-10-01T16:58:25.556Z,1.87
2022-10-01T17:00:52.304Z,2.87
2022-10-01T17:03:22.167Z,2.13
2022-10-01T17:05:48.872Z,2.17
2022-10-01T17:08:16.422Z,2.10
2022-10-01T17:10:46.320Z,2.20
2022-10-01T17:13:18.694Z,2.03
2022-10-01T17:15:48.842Z,2.50
2022-10-01T17:18:15.255Z,2.30
2022-10-01T17:20:43.239Z,2.40
2022-10-01T17:23:10.407Z,2.10
2022-10-01T17:25:38.292Z,2.40
2022-10-01T17:28:06.287Z,2.20
2022-10-01T17:30:33.079Z,2.30
2022-10-01T17:33:01.792Z,2.90
2022-10-01T17:35:29.518Z,2.30
2022-10-01T17:37:56.153Z,2.60
2022-10-01T17:40:22.767Z,2.40
2022-10-01T17:42:49.511Z,2.20
2022-10-01T17:45:16.055Z,2.23
2022-10-01T17:47:46.212Z,2.70
2022-10-01T17:50:13.168Z,3.53
2022-10-01T17:52:39.751Z,2.60
2022-10-01T17:55:06.610Z,2.90
2022-10-01T17:57:34.407Z,2.50
2022-10-01T18:00:04.766Z,2.00
2022-10-01T18:02:42.538Z,1.97
2022-10-01T18:05:12.174Z,1.97
2022-10-01T18:07:39.010Z,2.80
2022-10-01T18:10:08.258Z,2.47
2022-10-01T18:12:34.941Z,2.30
2022-10-01T18:15:01.843Z,2.30
2022-10-01T18:17:29.205Z,2.03
2022-10-01T18:19:57.269Z,2.77
2022-10-01T18:22:24.110Z,3.03
2022-10-01T18:24:51.582Z,2.70
2022-10-01T18:27:18.152Z,3.30
2022-10-01T18:29:44.833Z,2.80
2022-10-01T18:32:22.655Z,3.00
2022-10-01T18:35:00.354Z,2.67
2022-10-01T18:37:45.844Z,2.53
2022-10-01T18:42:55.351Z,3.10
2022-10-01T18:45:48.567Z,3.30
2022-10-01T18:48:34.143Z,2.93
2022-10-01T18:51:00.738Z,2.77
2022-10-01T18:53:38.775Z,3.47
2022-10-01T18:56:23.979Z,2.87
2022-10-01T18:58:56.928Z,2.90
2022-10-01T19:01:36.309Z,3.30
2022-10-01T19:04:25.576Z,3.07
2022-10-01T19:06:56.235Z,3.00
2022-10-01T19:09:29.660Z,2.93
2022-10-01T19:11:56.180Z,3.80
2022-10-01T19:14:22.808Z,3.67
2022-10-01T19:17:02.181Z,3.17
2022-10-01T19:19:35.066Z,3.47
2022-10-01T19:22:15.698Z,3.27
2022-10-01T19:24:58.489Z,3.17
2022-10-01T19:27:46.586Z,3.43
2022-10-01T19:30:15.955Z,3.20
2022-10-01T19:32:45.879Z,3.60
2022-10-01T19:35:23.292Z,3.70
2022-10-01T19:38:08.704Z,3.37
2022-10-01T19:40:39.438Z,3.30
2022-10-01T19:43:09.002Z,4.33
2022-10-01T19:46:05.192Z,3.80
2022-10-01T19:48:37.693Z,3.73
2022-10-01T19:51:12.440Z,3.40
2022-10-01T19:53:42.236Z,3.57
2022-10-01T19:56:13.883Z,2.93
2022-10-01T19:58:41.126Z,4.47
2022-10-01T20:01:13.614Z,4.00
2022-10-01T20:03:44.020Z,4.47
2022-10-01T20:06:21.658Z,3.73
2022-10-01T20:08:48.285Z,4.10
2022-10-01T20:11:32.075Z,3.67
2022-10-01T20:13:58.553Z,2.93
2022-10-01T20:16:40.867Z,3.07
2022-10-01T20:19:17.153Z,3.17
2022-10-01T20:22:03.328Z,3.93
2022-10-01T20:24:47.781Z,4.00
2022-10-01T20:27:48.533Z,3.50
2022-10-01T20:30:21.599Z,3.43
2022-10-01T20:33:14.231Z,3.60
2022-10-01T20:35:47.287Z,3.20
2022-10-01T20:38:21.618Z,3.47
2022-10-01T20:40:50.883Z,3.70
2022-10-01T20:43:29.640Z,4.17
2022-10-01T20:45:57.332Z,3.43
2022-10-01T20:48:34.003Z,3.37
2022-10-01T20:51:03.620Z,3.27
2022-10-01T20:53:44.380Z,3.20
2022-10-01T20:56:13.574Z,2.90
2022-10-01T20:58:44.627Z,3.17
2022-10-01T21:01:22.255Z,3.10
2022-10-01T21:04:03.661Z,3.40
2022-10-01T21:06:35.567Z,3.30
2022-10-01T21:09:11.935Z,3.73
2022-10-01T21:11:45.000Z,3.00
2022-10-01T21:14:19.628Z,2.57
2022-10-01T21:16:55.395Z,2.50
2022-10-01T21:19:27.230Z,2.67
2022-10-01T21:22:03.871Z,2.97
2022-10-01T21:24:45.896Z,3.20
2022-10-01T21:27:16.864Z,2.47
2022-10-01T21:29:50.551Z,2.80
2022-10-01T21:32:35.913Z,2.63
2022-10-01T21:35:15.643Z,2.50
2022-10-01T21:37:44.839Z,2.93
2022-10-01T21:40:25.849Z,2.50
2022-10-01T21:42:59.179Z,2.80
2022-10-01T21:45:32.631Z,2.50
2022-10-01T21:48:06.774Z,2.63
2022-10-01T21:50:36.398Z,2.40
2022-10-01T21:53:02.799Z,2.50
2022-10-01T21:55:30.150Z,2.60
2022-10-01T21:58:01.559Z,2.73
2022-10-01T22:00:29.639Z,2.63
2022-10-01T22:02:56.027Z,2.40
2022-10-01T22:05:29.328Z,2.00
2022-10-01T22:08:00.443Z,2.37
2022-10-01T22:10:28.260Z,1.93
2022-10-01T22:12:59.548Z,2.30
2022-10-01T22:15:36.875Z,2.50
2022-10-01T22:18:05.567Z,1.97
2022-10-01T22:20:34.261Z,2.20
2022-10-01T22:23:02.131Z,2.90
2022-10-01T22:25:29.680Z,2.20
2022-10-01T22:28:01.987Z,2.27
2022-10-01T22:30:33.051Z,2.20
2022-10-01T22:33:16.101Z,2.33
2022-10-01T22:35:49.632Z,2.27
2022-10-01T22:38:22.475Z,2.23
2022-10-01T22:40:51.629Z,2.37
2022-10-01T22:43:18.155Z,2.53
2022-10-01T22:46:01.180Z,2.47
2022-10-01T22:48:40.162Z,2.30
2022-10-01T22:51:14.062Z,2.20
2022-10-01T22:53:50.137Z,2.53
2022-10-01T22:56:23.478Z,2.87
2022-10-01T22:58:53.083Z,2.43
2022-10-01T23:01:45.502Z,2.37
2022-10-01T23:04:23.815Z,2.77
2022-10-01T23:07:12.363Z,2.87
2022-10-01T23:09:47.715Z,2.43
2022-10-01T23:12:21.908Z,2.70
2022-10-01T23:14:57.594Z,2.77
2022-10-01T23:17:34.278Z,2.90
2022-10-01T23:20:00.752Z,2.63
2022-10-01T23:22:45.866Z,2.20
2022-10-01T23:25:34.234Z,2.73
2022-10-01T23:28:08.056Z,3.23
2022-10-01T23:30:51.790Z,3.40
2022-10-01T23:33:21.629Z,2.87
2022-10-01T23:36:03.012Z,2.30
2022-10-01T23:38:29.974Z,3.20
2022-10-01T23:40:58.325Z,2.83
2022-10-01T23:43:31.435Z,2.57
2022-10-01T23:46:04.345Z,3.53
2022-10-01T23:48:35.333Z,2.60
2022-10-01T23:51:20.573Z,3.67
2022-10-01T23:53:57.445Z,3.40
2022-10-01T23:56:48.640Z,2.60
2022-10-01T23:59:21.689Z,2.60
